createdAt,value
2019-05-16T00:00:24.261Z,15.38
2019-05-16T00:01:29.997Z,15.33
2019-05-16T00:02:33.935Z,15.29
2019-05-16T00:03:38.454Z,15.26
2019-05-16T00:04:42.190Z,15.27
2019-05-16T00:05:51.416Z,15.27
2019-05-16T00:06:52.142Z,15.23
2019-05-16T00:07:59.028Z,15.16
2019-05-16T00:09:01.998Z,15.11
2019-05-16T00:10:08.360Z,15.01
2019-05-16T00:11:12.806Z,14.92
2019-05-16T00:12:18.418Z,14.91
2019-05-16T00:13:22.648Z,14.93
2019-05-16T00:14:28.169Z,14.97
2019-05-16T00:15:31.848Z,14.99
2019-05-16T00:16:37.992Z,14.99
2019-05-16T00:17:41.894Z,15.02
2019-05-16T00:18:47.926Z,15.04
2019-05-16T00:19:51.441Z,15.02
2019-05-16T00:20:55.658Z,15.03
2019-05-16T00:21:59.294Z,15.01
2019-05-16T00:23:03.532Z,15.01
2019-05-16T00:24:08.254Z,14.98
2019-05-16T00:25:13.346Z,15.00
2019-05-16T00:26:19.481Z,14.96
2019-05-16T00:27:22.906Z,14.96
2019-05-16T00:28:28.637Z,14.99
2019-05-16T00:29:32.503Z,14.99
2019-05-16T00:30:36.160Z,14.98
2019-05-16T00:31:40.350Z,14.98
2019-05-16T00:32:44.291Z,14.97
2019-05-16T00:33:48.876Z,14.94
2019-05-16T00:34:52.567Z,14.93
2019-05-16T00:36:03.376Z,14.96
2019-05-16T00:37:02.112Z,14.89
2019-05-16T00:38:08.674Z,14.89
2019-05-16T00:39:12.114Z,14.85
2019-05-16T00:40:18.585Z,14.78
2019-05-16T00:41:21.682Z,14.71
2019-05-16T00:42:25.897Z,14.64
2019-05-16T00:43:29.528Z,14.55
2019-05-16T00:44:33.749Z,14.60
2019-05-16T00:45:38.573Z,14.65
2019-05-16T00:46:42.854Z,14.71
2019-05-16T00:47:48.024Z,14.74
2019-05-16T00:48:52.724Z,14.73
2019-05-16T00:49:58.233Z,14.76
2019-05-16T00:51:03.246Z,14.76
2019-05-16T00:52:07.793Z,14.82
2019-05-16T00:53:12.092Z,14.76
2019-05-16T00:54:15.634Z,14.65
2019-05-16T00:55:19.866Z,14.61
2019-05-16T00:56:24.014Z,14.56
2019-05-16T00:57:28.690Z,14.52
2019-05-16T00:58:34.133Z,14.50
2019-05-16T00:59:39.123Z,14.53
2019-05-16T01:00:50.324Z,14.53
2019-05-16T01:01:54.756Z,14.43
2019-05-16T01:02:58.250Z,14.36
2019-05-16T01:04:08.018Z,14.38
2019-05-16T01:05:14.392Z,14.36
2019-05-16T01:06:22.680Z,14.39
2019-05-16T01:07:23.386Z,14.42
2019-05-16T01:08:28.273Z,14.39
2019-05-16T01:09:32.454Z,14.33
2019-05-16T01:10:38.912Z,14.26
2019-05-16T01:11:42.118Z,14.24
2019-05-16T01:12:48.049Z,14.24
2019-05-16T01:13:51.980Z,14.30
2019-05-16T01:14:58.287Z,14.31
2019-05-16T01:16:01.558Z,14.28
2019-05-16T01:17:05.807Z,14.33
2019-05-16T01:18:09.467Z,14.37
2019-05-16T01:19:14.782Z,14.31
2019-05-16T01:20:19.197Z,14.33
2019-05-16T01:21:24.061Z,14.26
2019-05-16T01:22:28.986Z,14.21
2019-05-16T01:23:33.683Z,14.24
2019-05-16T01:24:41.182Z,14.26
2019-05-16T01:25:43.276Z,14.16
2019-05-16T01:26:48.453Z,14.16
2019-05-16T01:27:52.946Z,14.16
2019-05-16T01:28:57.698Z,14.16
2019-05-16T01:30:02.052Z,14.16
2019-05-16T01:31:05.693Z,14.09
2019-05-16T01:32:09.914Z,14.05
2019-05-16T01:33:13.580Z,13.93
2019-05-16T01:34:18.167Z,13.92
2019-05-16T01:35:21.918Z,13.96
2019-05-16T01:36:36.785Z,13.96
2019-05-16T01:37:31.879Z,14.09
2019-05-16T01:38:36.090Z,14.05
2019-05-16T01:39:40.036Z,14.04
2019-05-16T01:40:44.231Z,14.06
2019-05-16T01:41:48.148Z,14.08
2019-05-16T01:42:52.549Z,14.12
2019-05-16T01:43:58.375Z,14.16
2019-05-16T01:45:02.155Z,14.15
2019-05-16T01:46:08.265Z,14.08
2019-05-16T01:47:11.777Z,14.11
2019-05-16T01:48:15.428Z,14.11
2019-05-16T01:49:19.613Z,14.16
2019-05-16T01:50:23.273Z,14.20
2019-05-16T01:51:28.788Z,14.16
2019-05-16T01:52:32.632Z,14.17
2019-05-16T01:53:39.022Z,14.21
2019-05-16T01:54:42.149Z,14.17
2019-05-16T01:55:48.606Z,14.27
2019-05-16T01:56:52.183Z,14.28
2019-05-16T01:57:58.435Z,14.17
2019-05-16T01:59:01.723Z,14.17
2019-05-16T02:00:08.400Z,14.14
2019-05-16T02:01:15.762Z,14.14
2019-05-16T02:02:18.902Z,14.14
2019-05-16T02:03:22.649Z,14.18
2019-05-16T02:04:28.740Z,14.19
2019-05-16T02:05:32.858Z,14.16
2019-05-16T02:06:48.479Z,14.14
2019-05-16T02:07:42.447Z,14.21
2019-05-16T02:08:48.747Z,14.21
2019-05-16T02:09:52.377Z,14.25
2019-05-16T02:10:58.369Z,14.28
2019-05-16T02:12:01.924Z,14.29
2019-05-16T02:13:08.339Z,14.23
2019-05-16T02:14:11.473Z,14.28
2019-05-16T02:15:18.046Z,14.29
2019-05-16T02:16:21.436Z,14.20
2019-05-16T02:17:25.851Z,14.20
2019-05-16T02:18:29.545Z,14.23
2019-05-16T02:19:33.748Z,14.30
2019-05-16T02:20:39.217Z,14.36
2019-05-16T02:21:43.309Z,14.36
2019-05-16T02:22:48.256Z,14.32
2019-05-16T02:23:52.621Z,14.37
2019-05-16T02:24:58.363Z,14.35
2019-05-16T02:26:02.178Z,14.34
2019-05-16T02:27:05.835Z,14.28
2019-05-16T02:28:10.025Z,14.28
2019-05-16T02:29:13.909Z,14.31
2019-05-16T02:30:21.511Z,14.24
2019-05-16T02:31:23.539Z,14.18
2019-05-16T02:32:31.109Z,14.21
2019-05-16T02:33:33.182Z,14.22
2019-05-16T02:34:37.421Z,14.22
2019-05-16T02:35:41.056Z,14.19
2019-05-16T02:36:45.249Z,14.15
2019-05-16T02:37:54.750Z,14.11
2019-05-16T02:38:55.839Z,14.01
2019-05-16T02:40:01.218Z,14.00
2019-05-16T02:41:05.600Z,13.99
2019-05-16T02:42:11.856Z,13.95
2019-05-16T02:43:15.263Z,13.93
2019-05-16T02:44:20.926Z,13.98
2019-05-16T02:45:25.233Z,13.97
2019-05-16T02:46:30.806Z,13.96
2019-05-16T02:47:35.274Z,13.95
2019-05-16T02:48:41.020Z,14.01
2019-05-16T02:49:44.932Z,14.07
2019-05-16T02:50:51.218Z,14.12
2019-05-16T02:51:54.555Z,14.10
2019-05-16T02:53:01.287Z,14.08
2019-05-16T02:54:03.889Z,14.06
2019-05-16T02:55:11.301Z,14.09
2019-05-16T02:56:13.797Z,14.11
2019-05-16T02:57:20.954Z,14.11
2019-05-16T02:58:23.871Z,14.07
2019-05-16T02:59:30.595Z,14.03
2019-05-16T03:00:42.713Z,14.04
2019-05-16T03:01:44.599Z,14.05
2019-05-16T03:02:50.493Z,14.14
2019-05-16T03:03:54.335Z,14.16
2019-05-16T03:05:00.935Z,14.17
2019-05-16T03:06:04.372Z,14.18
2019-05-16T03:07:13.357Z,14.16
2019-05-16T03:08:14.566Z,14.17
2019-05-16T03:09:21.372Z,14.23
2019-05-16T03:10:26.007Z,14.20
2019-05-16T03:11:31.422Z,14.26
2019-05-16T03:12:37.568Z,14.26
2019-05-16T03:13:43.646Z,14.25
2019-05-16T03:14:50.422Z,14.23
2019-05-16T03:15:55.609Z,14.13
2019-05-16T03:17:03.164Z,14.13
2019-05-16T03:18:07.405Z,14.15
2019-05-16T03:19:12.821Z,14.17
2019-05-16T03:20:16.995Z,14.20
2019-05-16T03:21:24.097Z,14.11
2019-05-16T03:22:31.591Z,14.11
2019-05-16T03:23:35.537Z,14.02
2019-05-16T03:24:42.057Z,14.08
2019-05-16T03:25:45.421Z,14.08
2019-05-16T03:26:51.451Z,14.08
2019-05-16T03:27:55.191Z,14.11
2019-05-16T03:29:00.923Z,14.09
2019-05-16T03:30:05.728Z,14.11
2019-05-16T03:31:14.921Z,14.15
2019-05-16T03:32:15.368Z,14.16
2019-05-16T03:33:25.958Z,14.13
2019-05-16T03:34:26.384Z,14.21
2019-05-16T03:35:34.096Z,14.25
2019-05-16T03:36:36.421Z,14.26
2019-05-16T03:37:51.528Z,14.21
2019-05-16T03:38:46.111Z,14.27
2019-05-16T03:39:51.484Z,14.27
2019-05-16T03:40:55.221Z,14.30
2019-05-16T03:42:01.085Z,14.22
2019-05-16T03:43:04.919Z,14.23
2019-05-16T03:44:11.279Z,14.29
2019-05-16T03:45:14.541Z,14.29
2019-05-16T03:46:21.509Z,14.30
2019-05-16T03:47:24.109Z,14.38
2019-05-16T03:48:31.278Z,14.47
2019-05-16T03:49:33.777Z,14.50
2019-05-16T03:50:41.052Z,14.44
2019-05-16T03:51:43.778Z,14.35
2019-05-16T03:52:50.872Z,14.35
2019-05-16T03:53:53.683Z,14.43
2019-05-16T03:55:01.389Z,14.44
2019-05-16T03:56:03.659Z,14.53
2019-05-16T03:57:11.364Z,14.50
2019-05-16T03:58:13.245Z,14.55
2019-05-16T03:59:17.435Z,14.59
2019-05-16T04:00:24.306Z,14.63
2019-05-16T04:01:31.283Z,14.67
2019-05-16T04:02:33.848Z,14.70
2019-05-16T04:03:40.993Z,14.49
2019-05-16T04:04:43.434Z,14.15
2019-05-16T04:05:47.746Z,13.98
2019-05-16T04:06:51.428Z,14.03
2019-05-16T04:08:10.385Z,13.94
2019-05-16T04:09:01.842Z,13.94
2019-05-16T04:10:10.892Z,14.08
2019-05-16T04:11:13.650Z,14.17
2019-05-16T04:12:21.134Z,14.06
2019-05-16T04:13:23.443Z,13.97
2019-05-16T04:14:30.700Z,13.97
2019-05-16T04:15:33.074Z,13.99
2019-05-16T04:16:37.265Z,13.90
2019-05-16T04:17:41.515Z,13.86
2019-05-16T04:18:45.831Z,13.77
2019-05-16T04:19:50.874Z,13.66
2019-05-16T04:20:55.255Z,13.47
2019-05-16T04:22:01.369Z,13.36
2019-05-16T04:23:04.879Z,13.36
2019-05-16T04:24:12.041Z,13.38
2019-05-16T04:25:14.597Z,13.43
2019-05-16T04:26:21.390Z,13.38
2019-05-16T04:27:24.339Z,13.32
2019-05-16T04:28:31.358Z,13.29
2019-05-16T04:29:34.102Z,13.20
2019-05-16T04:30:37.745Z,13.16
2019-05-16T04:31:42.041Z,13.13
2019-05-16T04:32:45.798Z,13.11
2019-05-16T04:33:51.645Z,13.14
2019-05-16T04:34:55.883Z,13.23
2019-05-16T04:36:01.188Z,13.25
2019-05-16T04:37:05.228Z,13.21
2019-05-16T04:38:31.874Z,13.26
2019-05-16T04:39:24.649Z,13.21
2019-05-16T04:40:31.157Z,13.24
2019-05-16T04:41:34.618Z,13.27
2019-05-16T04:42:41.625Z,13.22
2019-05-16T04:43:44.261Z,13.19
2019-05-16T04:44:51.289Z,13.22
2019-05-16T04:45:53.844Z,13.26
2019-05-16T04:47:01.745Z,13.26
2019-05-16T04:48:10.977Z,13.31
2019-05-16T04:49:13.793Z,13.29
2019-05-16T04:50:20.804Z,13.26
2019-05-16T04:51:23.729Z,13.31
2019-05-16T04:52:27.355Z,13.24
2019-05-16T04:53:32.529Z,13.21
2019-05-16T04:54:36.178Z,13.19
2019-05-16T04:55:41.991Z,13.22
2019-05-16T04:56:46.287Z,13.24
2019-05-16T04:57:51.298Z,13.28
2019-05-16T04:58:54.987Z,13.39
2019-05-16T05:00:02.393Z,13.47
2019-05-16T05:01:04.568Z,13.57
2019-05-16T05:02:11.938Z,13.62
2019-05-16T05:03:14.154Z,13.57
2019-05-16T05:04:20.930Z,13.60
2019-05-16T05:05:23.620Z,13.66
2019-05-16T05:06:31.019Z,13.66
2019-05-16T05:07:33.311Z,13.66
2019-05-16T05:08:52.896Z,13.67
2019-05-16T05:09:42.860Z,13.73
2019-05-16T05:10:47.463Z,13.83
2019-05-16T05:11:52.125Z,13.95
2019-05-16T05:12:56.518Z,13.99
2019-05-16T05:14:00.937Z,14.04
2019-05-16T05:15:10.845Z,14.07
2019-05-16T05:16:12.841Z,14.05
2019-05-16T05:17:17.031Z,13.95
2019-05-16T05:18:21.498Z,13.87
2019-05-16T05:19:25.985Z,13.99
2019-05-16T05:20:30.468Z,14.01
2019-05-16T05:21:34.750Z,14.05
2019-05-16T05:22:39.779Z,13.93
2019-05-16T05:23:44.758Z,13.74
2019-05-16T05:24:50.590Z,13.74
2019-05-16T05:25:55.306Z,13.71
2019-05-16T05:26:59.803Z,13.73
2019-05-16T05:28:10.047Z,13.73
2019-05-16T05:29:14.175Z,13.73
2019-05-16T05:30:19.919Z,13.75
2019-05-16T05:31:25.793Z,13.74
2019-05-16T05:32:30.767Z,13.73
2019-05-16T05:33:34.461Z,13.92
2019-05-16T05:34:39.853Z,14.04
2019-05-16T05:35:43.669Z,14.09
2019-05-16T05:36:47.867Z,14.13
2019-05-16T05:37:51.502Z,14.23
2019-05-16T05:39:07.925Z,14.23
2019-05-16T05:40:01.129Z,14.26
2019-05-16T05:41:05.629Z,14.27
2019-05-16T05:42:10.507Z,14.37
2019-05-16T05:43:14.941Z,14.40
2019-05-16T05:44:20.351Z,14.35
2019-05-16T05:45:24.733Z,14.32
2019-05-16T05:46:31.407Z,14.34
2019-05-16T05:47:34.283Z,14.34
2019-05-16T05:48:40.863Z,14.36
2019-05-16T05:49:44.625Z,14.32
2019-05-16T05:50:50.692Z,14.43
2019-05-16T05:51:54.243Z,14.57
2019-05-16T05:52:57.891Z,14.70
2019-05-16T05:54:02.145Z,14.65
2019-05-16T05:55:06.810Z,14.63
2019-05-16T05:56:11.508Z,14.63
2019-05-16T05:57:24.495Z,14.68
2019-05-16T05:58:31.068Z,14.71
2019-05-16T05:59:35.018Z,14.73
2019-05-16T06:00:40.565Z,14.71
2019-05-16T06:01:44.376Z,14.65
2019-05-16T06:02:50.876Z,14.62
2019-05-16T06:03:53.990Z,14.65
2019-05-16T06:04:59.753Z,14.70
2019-05-16T06:06:03.561Z,14.76
2019-05-16T06:07:10.009Z,14.78
2019-05-16T06:08:13.109Z,14.76
2019-05-16T06:09:26.410Z,14.97
2019-05-16T06:10:22.791Z,14.97
2019-05-16T06:11:27.063Z,15.05
2019-05-16T06:12:31.840Z,15.04
2019-05-16T06:13:36.021Z,14.99
2019-05-16T06:14:43.491Z,14.97
2019-05-16T06:15:51.132Z,15.09
2019-05-16T06:16:55.305Z,15.16
2019-05-16T06:18:00.971Z,15.26
2019-05-16T06:19:04.614Z,15.26
2019-05-16T06:20:14.817Z,15.32
2019-05-16T06:21:20.286Z,15.41
2019-05-16T06:22:24.747Z,15.37
2019-05-16T06:23:30.804Z,15.31
2019-05-16T06:24:36.345Z,15.28
2019-05-16T06:25:40.537Z,15.34
2019-05-16T06:26:44.935Z,15.52
2019-05-16T06:27:51.153Z,15.62
2019-05-16T06:28:54.989Z,15.64
2019-05-16T06:30:00.551Z,15.63
2019-05-16T06:31:04.550Z,15.70
2019-05-16T06:32:10.176Z,15.74
2019-05-16T06:33:14.131Z,15.81
2019-05-16T06:34:17.845Z,15.85
2019-05-16T06:35:24.121Z,15.92
2019-05-16T06:36:27.514Z,15.97
2019-05-16T06:37:31.702Z,15.96
2019-05-16T06:38:35.488Z,15.92
2019-05-16T06:39:45.043Z,15.93
2019-05-16T06:40:45.459Z,15.94
2019-05-16T06:41:50.962Z,16.00
2019-05-16T06:42:54.869Z,16.15
2019-05-16T06:43:59.908Z,16.24
2019-05-16T06:45:04.511Z,16.29
2019-05-16T06:46:10.832Z,16.27
2019-05-16T06:47:19.684Z,16.41
2019-05-16T06:48:21.225Z,16.61
2019-05-16T06:49:25.528Z,16.86
2019-05-16T06:50:29.851Z,17.02
2019-05-16T06:51:33.587Z,17.18
2019-05-16T06:52:37.633Z,17.24
2019-05-16T06:53:41.258Z,17.37
2019-05-16T06:54:50.393Z,17.54
2019-05-16T06:55:53.891Z,17.48
2019-05-16T06:57:00.185Z,17.72
2019-05-16T06:58:03.505Z,17.90
2019-05-16T06:59:10.184Z,17.93
2019-05-16T07:00:13.654Z,17.98
2019-05-16T07:01:20.644Z,17.99
2019-05-16T07:02:30.646Z,18.07
2019-05-16T07:03:31.559Z,18.27
2019-05-16T07:04:35.600Z,18.33
2019-05-16T07:05:40.611Z,18.39
2019-05-16T07:06:55.940Z,18.41
2019-05-16T07:07:50.887Z,18.40
2019-05-16T07:08:54.723Z,18.45
2019-05-16T07:10:04.194Z,18.38
2019-05-16T07:11:04.329Z,18.19
2019-05-16T07:12:10.487Z,18.21
2019-05-16T07:13:14.115Z,18.29
2019-05-16T07:14:22.514Z,18.20
2019-05-16T07:15:23.801Z,18.15
2019-05-16T07:16:29.954Z,18.13
2019-05-16T07:17:33.520Z,18.18
2019-05-16T07:18:40.237Z,18.04
2019-05-16T07:19:43.095Z,18.05
2019-05-16T07:20:47.277Z,17.98
2019-05-16T07:21:50.997Z,17.95
2019-05-16T07:22:55.226Z,18.02
2019-05-16T07:24:00.121Z,18.07
2019-05-16T07:25:07.377Z,18.09
2019-05-16T07:26:11.242Z,18.03
2019-05-16T07:27:16.446Z,17.98
2019-05-16T07:28:21.115Z,17.79
2019-05-16T07:29:25.804Z,17.85
2019-05-16T07:30:30.357Z,17.97
2019-05-16T07:31:35.111Z,17.91
2019-05-16T07:32:40.530Z,18.03
2019-05-16T07:33:44.953Z,18.06
2019-05-16T07:34:49.836Z,18.21
2019-05-16T07:35:54.230Z,18.43
2019-05-16T07:37:00.331Z,18.56
2019-05-16T07:38:03.845Z,18.65
2019-05-16T07:39:07.500Z,18.69
2019-05-16T07:40:19.014Z,18.68
2019-05-16T07:41:17.250Z,18.73
2019-05-16T07:42:21.453Z,18.72
2019-05-16T07:43:25.140Z,18.76
2019-05-16T07:44:30.984Z,18.64
2019-05-16T07:45:37.647Z,18.61
2019-05-16T07:46:44.521Z,18.69
2019-05-16T07:47:46.374Z,18.51
2019-05-16T07:48:51.820Z,18.42
2019-05-16T07:49:55.908Z,18.54
2019-05-16T07:51:00.582Z,18.56
2019-05-16T07:52:04.422Z,18.62
2019-05-16T07:53:10.565Z,18.61
2019-05-16T07:54:14.419Z,18.61
2019-05-16T07:55:20.900Z,18.56
2019-05-16T07:56:24.001Z,18.45
2019-05-16T07:57:30.509Z,18.50
2019-05-16T07:58:33.620Z,18.60
2019-05-16T07:59:40.444Z,18.78
2019-05-16T08:00:52.709Z,18.96
2019-05-16T08:01:53.693Z,18.94
2019-05-16T08:02:55.139Z,19.04
2019-05-16T08:04:00.099Z,18.97
2019-05-16T08:05:04.265Z,18.90
2019-05-16T08:06:10.896Z,19.02
2019-05-16T08:07:13.835Z,19.31
2019-05-16T08:08:23.285Z,19.54
2019-05-16T08:09:23.427Z,19.64
2019-05-16T08:10:37.883Z,19.84
2019-05-16T08:11:33.064Z,19.79
2019-05-16T08:12:37.234Z,19.92
2019-05-16T08:13:40.891Z,19.96
2019-05-16T08:14:45.528Z,20.02
2019-05-16T08:15:50.415Z,19.81
2019-05-16T08:16:55.055Z,19.46
2019-05-16T08:18:03.168Z,19.33
2019-05-16T08:19:04.627Z,18.98
2019-05-16T08:20:10.785Z,18.71
2019-05-16T08:21:16.950Z,18.80
2019-05-16T08:22:22.190Z,18.98
2019-05-16T08:23:26.001Z,18.87
2019-05-16T08:24:30.594Z,18.90
2019-05-16T08:25:37.271Z,18.85
2019-05-16T08:26:43.204Z,18.85
2019-05-16T08:27:46.833Z,18.86
2019-05-16T08:28:50.748Z,18.91
2019-05-16T08:29:55.061Z,18.78
2019-05-16T08:31:00.936Z,18.79
2019-05-16T08:32:05.059Z,18.84
2019-05-16T08:33:13.226Z,18.81
2019-05-16T08:34:14.820Z,18.99
2019-05-16T08:35:21.007Z,19.14
2019-05-16T08:36:24.496Z,19.15
2019-05-16T08:38:34.080Z,19.50
2019-05-16T08:39:37.703Z,19.63
2019-05-16T08:41:51.616Z,19.68
2019-05-16T08:42:54.058Z,19.76
2019-05-16T08:44:01.146Z,19.78
2019-05-16T08:45:04.676Z,19.71
2019-05-16T08:46:11.715Z,19.81
2019-05-16T08:47:14.344Z,19.96
2019-05-16T08:48:22.401Z,19.99
2019-05-16T08:49:24.247Z,20.00
2019-05-16T08:50:08.653Z,19.60
2019-05-16T08:50:28.214Z,20.11
2019-05-16T08:51:33.799Z,20.14
2019-05-16T08:52:37.553Z,20.15
2019-05-16T08:54:47.140Z,20.65
2019-05-16T08:55:51.326Z,20.97
2019-05-16T08:57:02.419Z,21.26
2019-05-16T08:58:03.239Z,21.54
2019-05-16T08:59:06.871Z,21.78
2019-05-16T09:00:14.791Z,21.77
2019-05-16T09:01:21.486Z,21.50
2019-05-16T09:03:32.048Z,21.57
2019-05-16T09:04:34.846Z,21.30
2019-05-16T09:05:42.621Z,21.13
2019-05-16T09:06:45.090Z,21.03
2019-05-16T09:07:48.784Z,21.12
2019-05-16T09:08:52.984Z,21.09
2019-05-16T09:10:00.183Z,21.17
2019-05-16T09:10:30.562Z,20.22
2019-05-16T09:10:30.921Z,21.61
2019-05-16T09:10:35.823Z,19.34
2019-05-16T09:11:26.305Z,21.24
2019-05-16T09:12:08.017Z,21.29
2019-05-16T09:13:12.203Z,21.12
2019-05-16T09:14:17.177Z,21.12
2019-05-16T09:15:22.670Z,21.02
2019-05-16T09:16:27.556Z,20.95
2019-05-16T09:17:31.957Z,20.79
2019-05-16T09:18:41.300Z,20.70
2019-05-16T09:19:41.921Z,20.61
2019-05-16T09:20:45.575Z,20.49
2019-05-16T09:21:49.791Z,20.26
2019-05-16T09:22:53.454Z,20.10
2019-05-16T09:23:57.967Z,19.89
2019-05-16T09:25:01.927Z,19.76
2019-05-16T09:26:07.321Z,19.79
2019-05-16T09:27:17.101Z,19.87
2019-05-16T09:28:18.216Z,20.01
2019-05-16T09:29:21.859Z,20.16
2019-05-16T09:30:27.534Z,20.15
2019-05-16T09:31:31.542Z,20.08
2019-05-16T09:32:36.978Z,19.95
2019-05-16T09:33:41.108Z,19.87
2019-05-16T09:34:47.903Z,19.82
2019-05-16T09:35:50.792Z,19.76
2019-05-16T09:37:00.451Z,19.66
2019-05-16T09:38:00.560Z,19.68
2019-05-16T09:39:08.376Z,19.69
2019-05-16T09:40:12.768Z,19.59
2019-05-16T09:41:17.181Z,19.50
2019-05-16T09:42:21.252Z,19.44
2019-05-16T09:43:28.070Z,19.34
2019-05-16T09:44:30.910Z,19.31
2019-05-16T09:45:37.863Z,19.18
2019-05-16T09:46:40.509Z,19.08
2019-05-16T09:47:44.748Z,19.06
2019-05-16T09:48:48.444Z,19.06
2019-05-16T09:49:53.035Z,19.09
2019-05-16T09:50:58.330Z,19.10
2019-05-16T09:52:02.613Z,19.05
2019-05-16T09:53:07.257Z,19.16
2019-05-16T09:54:11.985Z,19.27
2019-05-16T09:55:17.543Z,19.43
2019-05-16T09:56:22.009Z,19.59
2019-05-16T09:57:27.772Z,19.80
2019-05-16T09:58:31.606Z,20.06
2019-05-16T09:59:37.085Z,20.36
2019-05-16T10:00:41.571Z,20.63
2019-05-16T10:01:47.502Z,20.89
2019-05-16T10:02:50.964Z,21.12
2019-05-16T10:03:54.636Z,21.37
2019-05-16T10:04:58.903Z,21.56
2019-05-16T10:06:02.590Z,21.75
2019-05-16T10:07:06.862Z,21.85
2019-05-16T10:08:10.581Z,21.84
2019-05-16T10:09:17.525Z,21.88
2019-05-16T10:10:21.415Z,21.86
2019-05-16T10:11:31.108Z,21.86
2019-05-16T10:12:31.156Z,21.92
2019-05-16T10:13:37.663Z,22.03
2019-05-16T10:14:40.811Z,22.16
2019-05-16T10:15:47.257Z,22.18
2019-05-16T10:16:50.352Z,22.28
2019-05-16T10:17:57.350Z,22.41
2019-05-16T10:18:59.919Z,22.45
2019-05-16T10:20:07.615Z,22.31
2019-05-16T10:21:09.820Z,22.19
2019-05-16T10:22:16.869Z,22.18
2019-05-16T10:23:19.396Z,22.01
2019-05-16T10:24:23.579Z,21.87
2019-05-16T10:25:27.919Z,21.78
2019-05-16T10:26:32.239Z,21.76
2019-05-16T10:27:36.922Z,21.86
2019-05-16T10:28:41.169Z,22.05
2019-05-16T10:29:48.102Z,22.17
2019-05-16T10:30:51.341Z,22.39
2019-05-16T10:31:56.873Z,22.49
2019-05-16T10:33:01.365Z,22.78
2019-05-16T10:34:07.673Z,23.02
2019-05-16T10:35:11.756Z,23.16
2019-05-16T10:36:17.315Z,23.29
2019-05-16T10:37:21.620Z,23.52
2019-05-16T10:38:28.573Z,23.62
2019-05-16T10:39:31.500Z,23.80
2019-05-16T10:40:36.958Z,23.84
2019-05-16T10:41:41.327Z,23.75
2019-05-16T10:42:47.150Z,23.86
2019-05-16T10:43:50.885Z,24.00
2019-05-16T10:44:57.474Z,23.87
2019-05-16T10:46:00.475Z,23.70
2019-05-16T10:47:04.149Z,23.70
2019-05-16T10:48:08.735Z,23.68
2019-05-16T10:49:12.375Z,23.50
2019-05-16T10:50:16.841Z,23.33
2019-05-16T10:51:23.764Z,23.25
2019-05-16T10:52:27.096Z,22.91
2019-05-16T10:53:58.027Z,22.87
2019-05-16T10:54:37.256Z,22.84
2019-05-16T10:55:41.014Z,22.83
2019-05-16T10:56:46.680Z,22.85
2019-05-16T10:57:50.827Z,22.82
2019-05-16T10:59:25.952Z,22.58
2019-05-16T11:00:09.307Z,22.52
2019-05-16T11:01:22.371Z,22.49
2019-05-16T11:02:11.996Z,22.48
2019-05-16T11:03:17.117Z,22.39
2019-05-16T11:04:29.159Z,22.36
2019-05-16T11:05:33.047Z,22.29
2019-05-16T11:06:32.184Z,22.21
2019-05-16T11:07:37.064Z,22.19
2019-05-16T11:08:40.917Z,22.16
2019-05-16T11:09:55.681Z,22.07
2019-05-16T11:10:50.855Z,21.96
2019-05-16T11:11:57.104Z,21.91
2019-05-16T11:13:00.821Z,21.67
2019-05-16T11:14:09.064Z,21.64
2019-05-16T11:15:11.825Z,21.69
2019-05-16T11:16:17.444Z,21.53
2019-05-16T11:17:21.241Z,21.38
2019-05-16T11:18:27.289Z,21.31
2019-05-16T11:19:30.824Z,21.02
2019-05-16T11:20:37.185Z,20.61
2019-05-16T11:21:40.390Z,20.50
2019-05-16T11:22:47.542Z,20.48
2019-05-16T11:23:49.994Z,20.41
2019-05-16T11:24:56.463Z,20.52
2019-05-16T11:25:59.498Z,20.56
2019-05-16T11:27:03.677Z,20.59
2019-05-16T11:28:07.550Z,20.57
2019-05-16T11:29:11.824Z,20.63
2019-05-16T11:30:18.212Z,20.53
2019-05-16T11:31:22.605Z,20.53
2019-05-16T11:32:27.013Z,20.46
2019-05-16T11:33:31.502Z,20.39
2019-05-16T11:34:37.255Z,20.41
2019-05-16T11:35:41.113Z,20.52
2019-05-16T11:36:44.734Z,20.63
2019-05-16T11:37:48.980Z,20.87
2019-05-16T11:38:52.648Z,21.21
2019-05-16T11:39:57.151Z,21.24
2019-05-16T11:41:00.882Z,21.24
2019-05-16T11:42:07.732Z,21.16
2019-05-16T11:43:17.673Z,21.31
2019-05-16T11:44:17.654Z,21.52
2019-05-16T11:45:22.981Z,21.59
2019-05-16T11:46:28.122Z,21.54
2019-05-16T11:47:32.069Z,21.51
2019-05-16T11:48:37.669Z,21.48
2019-05-16T11:49:41.577Z,21.45
2019-05-16T11:50:47.935Z,21.62
2019-05-16T11:51:51.565Z,21.83
2019-05-16T11:52:56.962Z,21.94
2019-05-16T11:54:00.647Z,22.07
2019-05-16T11:55:09.881Z,22.29
2019-05-16T11:56:13.567Z,22.43
2019-05-16T11:57:18.056Z,22.54
2019-05-16T11:58:21.764Z,22.60
2019-05-16T11:59:26.355Z,22.75
2019-05-16T12:00:30.765Z,22.75
2019-05-16T12:01:36.973Z,22.76
2019-05-16T12:02:42.839Z,22.71
2019-05-16T12:03:46.953Z,22.87
2019-05-16T12:04:50.686Z,23.06
2019-05-16T12:05:57.727Z,23.17
2019-05-16T12:07:00.295Z,23.17
2019-05-16T12:08:07.350Z,23.23
2019-05-16T12:09:09.901Z,23.31
2019-05-16T12:10:16.404Z,23.39
2019-05-16T12:11:21.777Z,23.39
2019-05-16T12:12:27.166Z,23.47
2019-05-16T12:13:32.926Z,23.49
2019-05-16T12:14:37.325Z,23.35
2019-05-16T12:15:40.961Z,23.48
2019-05-16T12:16:47.229Z,23.50
2019-05-16T12:18:00.837Z,23.46
2019-05-16T12:18:57.153Z,23.47
2019-05-16T12:20:01.066Z,23.36
2019-05-16T12:21:07.305Z,23.43
2019-05-16T12:22:12.235Z,23.51
2019-05-16T12:23:17.301Z,23.66
2019-05-16T12:24:33.442Z,23.80
2019-05-16T12:25:27.377Z,23.80
2019-05-16T12:26:33.048Z,23.84
2019-05-16T12:27:42.284Z,23.88
2019-05-16T12:28:43.026Z,24.07
2019-05-16T12:29:54.178Z,24.19
2019-05-16T12:30:52.616Z,24.23
2019-05-16T12:32:02.374Z,24.29
2019-05-16T12:33:02.299Z,24.32
2019-05-16T12:34:10.332Z,24.32
2019-05-16T12:35:14.349Z,24.41
2019-05-16T12:36:19.859Z,24.36
2019-05-16T12:37:23.684Z,24.36
2019-05-16T12:38:28.604Z,24.35
2019-05-16T12:39:32.332Z,24.50
2019-05-16T12:40:37.571Z,24.46
2019-05-16T12:41:41.881Z,24.30
2019-05-16T12:42:47.159Z,24.19
2019-05-16T12:43:53.564Z,23.94
2019-05-16T12:44:56.919Z,23.72
2019-05-16T12:46:00.547Z,23.45
2019-05-16T12:47:07.400Z,23.37
2019-05-16T12:48:10.581Z,23.71
2019-05-16T12:49:17.360Z,23.86
2019-05-16T12:50:20.669Z,23.83
2019-05-16T12:51:26.454Z,23.97
2019-05-16T12:52:31.984Z,24.14
2019-05-16T12:53:53.157Z,24.39
2019-05-16T12:54:44.402Z,24.63
2019-05-16T12:55:48.702Z,24.87
2019-05-16T12:57:11.322Z,25.03
2019-05-16T12:58:36.967Z,25.24
2019-05-16T13:00:07.246Z,25.36
2019-05-16T13:01:33.770Z,25.31
2019-05-16T13:02:41.441Z,25.46
2019-05-16T13:03:48.032Z,25.48
2019-05-16T13:04:57.582Z,25.42
2019-05-16T13:06:04.202Z,25.47
2019-05-16T13:07:14.374Z,25.58
2019-05-16T13:08:18.157Z,25.72
2019-05-16T13:09:26.507Z,25.70
2019-05-16T13:10:33.907Z,25.61
2019-05-16T13:11:38.255Z,25.60
2019-05-16T13:12:41.931Z,25.71
2019-05-16T13:14:02.401Z,25.75
2019-05-16T13:14:51.521Z,25.66
2019-05-16T13:15:55.691Z,25.73
2019-05-16T13:16:59.718Z,25.65
2019-05-16T13:18:03.959Z,25.56
2019-05-16T13:19:07.592Z,25.29
2019-05-16T13:20:13.155Z,25.44
2019-05-16T13:21:18.051Z,25.48
2019-05-16T13:22:22.699Z,25.47
2019-05-16T13:23:27.048Z,25.41
2019-05-16T13:24:31.348Z,25.20
2019-05-16T13:25:36.972Z,25.19
2019-05-16T13:26:40.915Z,25.08
2019-05-16T13:27:47.450Z,25.15
2019-05-16T13:28:50.957Z,25.01
2019-05-16T13:29:54.625Z,24.99
2019-05-16T13:30:59.006Z,24.95
2019-05-16T13:32:03.462Z,25.05
2019-05-16T13:33:07.675Z,25.19
2019-05-16T13:34:11.325Z,25.37
2019-05-16T13:35:16.995Z,25.52
2019-05-16T13:36:20.849Z,25.61
2019-05-16T13:37:27.456Z,25.77
2019-05-16T13:38:30.772Z,25.87
2019-05-16T13:39:35.007Z,25.93
2019-05-16T13:40:38.665Z,25.96
2019-05-16T13:41:42.846Z,25.97
2019-05-16T13:42:48.060Z,25.88
2019-05-16T13:43:52.490Z,25.82
2019-05-16T13:44:57.847Z,25.69
2019-05-16T13:46:02.560Z,25.63
2019-05-16T13:47:07.668Z,25.56
2019-05-16T13:48:12.288Z,25.49
2019-05-16T13:49:18.069Z,25.45
2019-05-16T13:50:22.029Z,25.50
2019-05-16T13:51:26.679Z,25.44
2019-05-16T13:52:31.016Z,25.36
2019-05-16T13:53:37.031Z,25.22
2019-05-16T13:54:42.048Z,25.15
2019-05-16T13:55:46.156Z,25.15
2019-05-16T13:56:50.362Z,25.15